Time;durP1;ratioP1;P1;durP2;ratioP2;P2;SDS_P1;SDS_P2;PMS_P1;PMS_P2;Temp;Humidity;BMP_temperature;BMP_pressure;BME280_temperature;BME280_humidity;BME280_pressure;Samples;Min_cycle;Max_cycle;Signal;HPM_P1;HPM_P2
2021/05/17 00:00:01;;;;;;;5.80;5.40;;;19.40;34.60;;;;;;5015980;28;20442;-78
2021/05/17 00:02:28;;;;;;;6.73;6.03;;;19.40;34.70;;;;;;5016686;28;20237;-78
2021/05/17 00:04:54;;;;;;;6.80;6.10;;;19.40;34.70;;;;;;5016268;28;20417;-77
2021/05/17 00:07:19;;;;;;;5.53;5.23;;;19.40;34.70;;;;;;5015251;28;20446;-78
2021/05/17 00:09:45;;;;;;;5.60;5.20;;;19.40;34.70;;;;;;5016358;28;20272;-78
2021/05/17 00:12:12;;;;;;;6.47;5.97;;;19.40;34.60;;;;;;4998682;28;20474;-78
2021/05/17 00:14:37;;;;;;;6.50;6.00;;;19.40;34.70;;;;;;4998462;28;20259;-78
2021/05/17 00:17:05;;;;;;;5.93;5.53;;;19.40;34.60;;;;;;5015940;28;20412;-79
2021/05/17 00:19:31;;;;;;;6.50;6.00;;;19.40;34.70;;;;;;5015978;28;20199;-78
2021/05/17 00:21:57;;;;;;;6.90;6.37;;;19.40;34.70;;;;;;5015959;28;20408;-78
2021/05/17 00:24:22;;;;;;;5.90;5.50;;;19.40;34.60;;;;;;5015347;28;20419;-78
2021/05/17 00:26:48;;;;;;;5.93;5.60;;;19.40;34.60;;;;;;5014964;28;20601;-77
2021/05/17 00:29:15;;;;;;;5.83;5.40;;;19.40;34.60;;;;;;5015015;28;20209;-78
2021/05/17 00:31:42;;;;;;;6.07;5.67;;;19.40;34.70;;;;;;5015137;28;20412;-78
2021/05/17 00:34:09;;;;;;;5.77;5.23;;;19.40;34.60;;;;;;5013328;28;20471;-77
2021/05/17 00:36:35;;;;;;;6.00;5.60;;;19.40;34.60;;;;;;5014480;28;20412;-78
2021/05/17 00:39:04;;;;;;;5.90;5.50;;;19.30;34.50;;;;;;5014668;28;20465;-77
2021/05/17 00:41:30;;;;;;;5.30;4.90;;;19.30;34.50;;;;;;5014088;28;20434;-78
2021/05/17 00:43:56;;;;;;;5.73;5.23;;;19.30;34.60;;;;;;4997225;28;20924;-78
2021/05/17 00:46:24;;;;;;;5.80;5.40;;;19.30;34.60;;;;;;4996500;28;20209;-79
2021/05/17 00:48:50;;;;;;;5.50;5.10;;;19.30;34.50;;;;;;5014462;28;20911;-79
2021/05/17 00:51:17;;;;;;;5.70;5.20;;;19.30;34.60;;;;;;4996624;28;20447;-78
2021/05/17 00:53:43;;;;;;;5.47;5.07;;;19.30;34.60;;;;;;5015023;28;20483;-79
2021/05/17 00:56:10;;;;;;;5.43;5.03;;;19.30;34.60;;;;;;5015729;28;20408;-78
2021/05/17 00:58:36;;;;;;;5.60;5.30;;;19.30;34.50;;;;;;4996829;28;20416;-78
2021/05/17 01:01:03;;;;;;;6.37;5.87;;;19.30;34.60;;;;;;5016623;28;20436;-79
2021/05/17 01:03:29;;;;;;;6.20;5.77;;;19.30;34.50;;;;;;5017399;28;20443;-78
2021/05/17 01:05:55;;;;;;;4.70;4.40;;;19.30;34.60;;;;;;5016742;28;20978;-79
2021/05/17 01:08:29;;;;;;;5.07;4.67;;;19.30;34.60;;;;;;5000172;28;20188;-79
2021/05/17 01:10:56;;;;;;;5.33;4.83;;;19.30;34.60;;;;;;5017084;28;20651;-79
2021/05/17 01:13:23;;;;;;;5.43;4.93;;;19.30;34.60;;;;;;5017491;28;20491;-78
2021/05/17 01:15:49;;;;;;;6.00;5.60;;;19.30;34.60;;;;;;4997962;28;20412;-78
2021/05/17 01:18:18;;;;;;;5.00;4.67;;;19.30;34.60;;;;;;5015682;28;20768;-78
2021/05/17 01:20:47;;;;;;;5.57;5.20;;;19.30;34.60;;;;;;4998502;28;20455;-78
2021/05/17 01:25:46;;;;;;;4.60;4.30;;;19.30;34.60;;;;;;5015653;28;20535;-78
2021/05/17 01:28:19;;;;;;;4.10;3.83;;;19.30;34.60;;;;;;5015707;28;20456;-78
2021/05/17 01:30:49;;;;;;;4.53;4.20;;;19.30;34.70;;;;;;4998157;28;20970;-78
2021/05/17 01:33:15;;;;;;;4.77;4.47;;;19.30;34.70;;;;;;5015456;28;20463;-79
2021/05/17 01:35:49;;;;;;;4.20;4.00;;;19.30;34.60;;;;;;5015460;28;20416;-79
2021/05/17 01:38:16;;;;;;;4.60;4.30;;;19.30;34.70;;;;;;4998029;28;20439;-78
2021/05/17 01:40:45;;;;;;;4.40;4.10;;;19.30;34.60;;;;;;4997296;28;20446;-79
2021/05/17 01:43:12;;;;;;;4.97;4.57;;;19.30;34.60;;;;;;5015690;28;20920;-78
2021/05/17 01:45:39;;;;;;;4.73;4.33;;;19.30;34.60;;;;;;5015115;28;20478;-78
2021/05/17 01:48:05;;;;;;;5.00;4.60;;;19.30;34.70;;;;;;4997719;28;20514;-78
2021/05/17 01:50:31;;;;;;;4.93;4.60;;;19.30;34.70;;;;;;5015529;28;20439;-78
2021/05/17 01:52:58;;;;;;;4.80;4.50;;;19.30;34.70;;;;;;5015593;28;20460;-78
2021/05/17 01:55:24;;;;;;;4.73;4.43;;;19.30;34.70;;;;;;5015623;28;20890;-78
2021/05/17 01:58:12;;;;;;;4.73;4.40;;;19.30;34.60;;;;;;4997327;28;20448;-78
2021/05/17 02:00:40;;;;;;;5.30;4.90;;;19.30;34.60;;;;;;5014901;28;20472;-78
2021/05/17 02:03:07;;;;;;;4.20;3.97;;;19.20;34.60;;;;;;5015108;28;20420;-78
2021/05/17 02:05:33;;;;;;;4.20;3.90;;;19.20;34.60;;;;;;4997026;28;20424;-78
2021/05/17 02:08:01;;;;;;;4.50;4.20;;;19.20;34.60;;;;;;5014903;28;20471;-78
2021/05/17 02:10:26;;;;;;;4.23;4.00;;;19.20;34.50;;;;;;5015566;28;20201;-78
2021/05/17 02:12:52;;;;;;;3.73;3.53;;;19.20;34.60;;;;;;5015430;28;20467;-78
2021/05/17 02:15:19;;;;;;;4.73;4.43;;;19.20;34.60;;;;;;5014432;28;20260;-78
2021/05/17 02:18:04;;;;;;;4.17;3.87;;;19.20;34.60;;;;;;5015215;28;20687;-78
2021/05/17 02:20:33;;;;;;;4.37;4.17;;;19.20;34.50;;;;;;5014668;28;20435;-79
2021/05/17 02:23:01;;;;;;;4.23;4.03;;;19.20;34.60;;;;;;5017937;28;20474;-78
2021/05/17 02:25:27;;;;;;;4.40;4.10;;;19.20;34.60;;;;;;5018397;28;20961;-78
2021/05/17 02:27:52;;;;;;;3.97;3.77;;;19.20;34.60;;;;;;5018825;28;20447;-78
2021/05/17 02:30:19;;;;;;;4.60;4.30;;;19.20;34.50;;;;;;5018503;28;20432;-78
2021/05/17 02:32:45;;;;;;;4.23;3.93;;;19.20;34.50;;;;;;5018552;28;20169;-78
2021/05/17 02:35:11;;;;;;;4.23;3.93;;;19.20;34.50;;;;;;5001386;28;20435;-79
2021/05/17 02:37:37;;;;;;;4.30;4.10;;;19.20;34.50;;;;;;5003257;28;20236;-79
2021/05/17 02:40:04;;;;;;;4.57;4.27;;;19.20;34.50;;;;;;5021005;28;20867;-78
2021/05/17 02:42:34;;;;;;;4.10;3.80;;;19.20;34.50;;;;;;5022256;28;20169;-79
2021/05/17 02:45:02;;;;;;;4.10;3.90;;;19.20;34.50;;;;;;5021093;28;20495;-78
2021/05/17 02:47:35;;;;;;;3.60;3.40;;;19.10;34.40;;;;;;5003380;28;20466;-78
2021/05/17 02:50:01;;;;;;;4.40;4.10;;;19.20;35.20;;;;;;5003132;28;20432;-78
2021/05/17 02:52:34;;;;;;;4.40;4.10;;;19.20;34.50;;;;;;5020808;28;20412;-78
2021/05/17 02:55:07;;;;;;;4.00;3.70;;;19.20;34.50;;;;;;5020400;28;20503;-78
2021/05/17 02:57:38;;;;;;;3.87;3.60;;;19.20;34.50;;;;;;5020526;28;20396;-78
2021/05/17 03:00:08;;;;;;;3.93;3.73;;;19.10;34.40;;;;;;5020342;28;20420;-79
2021/05/17 03:02:40;;;;;;;3.70;3.50;;;19.20;34.60;;;;;;5020904;28;20412;-79
2021/05/17 03:05:07;;;;;;;3.80;3.50;;;19.20;34.60;;;;;;5020677;28;20444;-79
2021/05/17 03:07:37;;;;;;;4.03;3.73;;;19.20;34.50;;;;;;5020022;28;20400;-79
2021/05/17 03:10:04;;;;;;;3.97;3.67;;;19.20;34.50;;;;;;5019564;28;20428;-78
2021/05/17 03:12:31;;;;;;;3.70;3.50;;;19.20;34.70;;;;;;5019439;28;20405;-79
2021/05/17 03:14:58;;;;;;;3.50;3.30;;;19.10;34.50;;;;;;5019156;28;20509;-79
2021/05/17 03:17:26;;;;;;;3.23;3.03;;;19.10;34.50;;;;;;5019203;28;20443;-79
2021/05/17 03:19:51;;;;;;;3.30;3.13;;;19.20;34.60;;;;;;5018658;28;20455;-79
2021/05/17 03:22:18;;;;;;;3.67;3.37;;;19.20;34.50;;;;;;5002120;28;20420;-78
2021/05/17 03:24:45;;;;;;;4.33;3.47;;;19.10;34.40;;;;;;5019163;28;20603;-78
2021/05/17 03:27:24;;;;;;;3.77;3.57;;;19.20;34.50;;;;;;5018902;28;20462;-78
2021/05/17 03:29:51;;;;;;;3.40;3.20;;;19.10;34.40;;;;;;5020092;28;20424;-78
2021/05/17 03:32:16;;;;;;;4.00;3.70;;;19.20;34.50;;;;;;5019482;28;20408;-78
2021/05/17 03:34:42;;;;;;;3.63;3.33;;;19.10;34.60;;;;;;5018083;28;20466;-78
2021/05/17 03:37:08;;;;;;;3.67;3.47;;;19.10;34.50;;;;;;5019161;28;20405;-78
2021/05/17 03:39:34;;;;;;;3.90;3.70;;;19.10;34.40;;;;;;5018878;28;20193;-79
2021/05/17 03:42:00;;;;;;;3.70;3.50;;;19.10;34.50;;;;;;5000962;28;20418;-79
2021/05/17 03:44:26;;;;;;;3.50;3.20;;;19.10;34.40;;;;;;5017719;28;20255;-79
2021/05/17 03:46:51;;;;;;;3.20;3.10;;;19.10;34.40;;;;;;5017535;28;20195;-79
2021/05/17 03:49:17;;;;;;;3.40;3.20;;;19.10;34.40;;;;;;5017355;28;20177;-78
2021/05/17 03:51:42;;;;;;;3.73;3.43;;;19.10;34.40;;;;;;5017152;28;20517;-78
2021/05/17 03:54:08;;;;;;;3.20;3.00;;;19.10;34.50;;;;;;5016906;28;20201;-78
2021/05/17 03:56:34;;;;;;;3.57;3.37;;;19.10;34.40;;;;;;5016582;28;20636;-78
2021/05/17 03:58:59;;;;;;;4.70;4.40;;;19.10;34.50;;;;;;4998933;28;20169;-78
2021/05/17 04:01:25;;;;;;;3.27;3.10;;;19.10;34.50;;;;;;5015949;28;20201;-78
2021/05/17 04:03:53;;;;;;;3.70;3.40;;;19.10;34.50;;;;;;4998408;28;20550;-79
2021/05/17 04:06:27;;;;;;;3.00;2.83;;;19.10;34.50;;;;;;5015201;28;20201;-79
2021/05/17 04:14:54;;;;;;;3.57;3.27;;;19.10;34.80;;;;;;5036449;28;20467;-78
2021/05/17 04:17:20;;;;;;;3.10;2.97;;;19.10;34.80;;;;;;5018395;28;20404;-78
2021/05/17 04:19:45;;;;;;;3.73;3.50;;;19.20;34.70;;;;;;5016243;28;20447;-77
2021/05/17 04:22:11;;;;;;;3.50;3.30;;;19.30;34.70;;;;;;5013953;28;20413;-79
2021/05/17 04:24:37;;;;;;;3.53;3.30;;;19.30;34.50;;;;;;5014072;28;20664;-79
2021/05/17 04:27:02;;;;;;;3.30;3.10;;;19.40;34.70;;;;;;4997589;28;20181;-79
2021/05/17 04:29:28;;;;;;;7.40;3.40;;;19.40;34.60;;;;;;5017286;28;20177;-80
2021/05/17 04:31:54;;;;;;;3.20;3.00;;;19.60;34.60;;;;;;5017690;28;20231;-80
2021/05/17 04:34:19;;;;;;;3.10;2.80;;;19.60;34.40;;;;;;5017959;28;20211;-79
2021/05/17 04:36:45;;;;;;;5.47;3.27;;;19.60;34.40;;;;;;5017874;28;20200;-80
2021/05/17 04:39:11;;;;;;;2.93;2.73;;;19.60;34.30;;;;;;5015389;28;20174;-80
2021/05/17 04:41:36;;;;;;;7.57;2.90;;;19.60;34.20;;;;;;4996811;28;20214;-80
2021/05/17 04:44:02;;;;;;;3.00;2.80;;;19.70;34.90;;;;;;4997622;28;20182;-80
2021/05/17 04:46:30;;;;;;;3.93;3.60;;;19.70;34.10;;;;;;4980262;28;20182;-79
2021/05/17 04:48:56;;;;;;;3.30;3.10;;;19.70;34.00;;;;;;4998190;28;20205;-79
2021/05/17 04:51:23;;;;;;;3.50;3.23;;;19.70;34.00;;;;;;4997587;28;20433;-78
2021/05/17 04:53:49;;;;;;;3.00;2.80;;;19.70;34.00;;;;;;4997164;28;20213;-79
2021/05/17 04:56:17;;;;;;;2.77;2.50;;;19.70;34.00;;;;;;4980169;28;20417;-79
2021/05/17 04:58:43;;;;;;;2.57;2.37;;;19.70;33.90;;;;;;4981482;28;20425;-79
2021/05/17 05:01:32;;;;;;;2.90;2.70;;;19.70;34.00;;;;;;4991953;28;20503;-79
2021/05/17 05:07:21;;;;;;;2.93;2.63;;;19.70;34.10;;;;;;4996406;28;20534;-78
2021/05/17 05:09:48;;;;;;;3.50;3.20;;;19.70;34.90;;;;;;4978065;28;20492;-78
2021/05/17 05:12:19;;;;;;;3.07;2.90;;;19.70;34.10;;;;;;4979206;28;20421;-81
2021/05/17 05:14:45;;;;;;;3.07;2.87;;;19.60;34.00;;;;;;4994889;28;20847;-75
2021/05/17 05:51:36;;;;;;;6.33;3.20;;;19.60;34.50;;;;;;5015637;28;21017;-80
2021/05/17 05:57:36;;;;;;;2.70;2.50;;;19.60;34.30;;;;;;4928208;28;20423;-77
2021/05/17 06:00:03;;;;;;;2.90;2.70;;;19.50;33.60;;;;;;5002626;28;20531;-80
2021/05/17 06:03:14;;;;;;;2.67;2.47;;;19.40;33.40;;;;;;5019703;28;20496;-82
2021/05/17 06:06:46;;;;;;;3.23;2.93;;;19.30;33.00;;;;;;5000966;28;20423;-80
2021/05/17 06:13:22;;;;;;;5.07;2.90;;;19.20;32.40;;;;;;4993931;28;20455;-81
2021/05/17 06:15:49;;;;;;;4.20;2.80;;;19.20;32.40;;;;;;5002018;28;20787;-82
2021/05/17 06:39:00;;;;;;;2.40;2.30;;;19.40;33.00;;;;;;5017853;28;20439;-79
2021/05/17 06:42:05;;;;;;;3.20;2.77;;;19.50;33.00;;;;;;4992586;28;20456;-80
2021/05/17 06:45:17;;;;;;;8.30;3.13;;;19.40;33.20;;;;;;4976494;28;20425;-81
2021/05/17 06:55:42;;;;;;;2.70;2.50;;;19.50;33.10;;;;;;4996766;28;20484;-79
2021/05/17 07:04:26;;;;;;;5.77;2.67;;;19.50;32.80;;;;;;4997552;28;20457;-78
2021/05/17 07:07:57;;;;;;;4.47;2.93;;;19.50;32.90;;;;;;4996557;28;20425;-80
2021/05/17 07:13:18;;;;;;;5.07;3.03;;;19.50;33.00;;;;;;5014968;28;20467;-81
2021/05/17 07:15:47;;;;;;;7.23;3.20;;;19.50;33.10;;;;;;4999165;28;20431;-80
2021/05/17 07:18:13;;;;;;;4.00;3.27;;;19.60;33.10;;;;;;4999072;28;20428;-79
2021/05/17 07:25:53;;;;;;;6.13;3.30;;;19.60;33.30;;;;;;5017667;28;20455;-79
2021/05/17 07:28:20;;;;;;;4.10;3.20;;;19.60;33.70;;;;;;5017351;28;20824;-78
2021/05/17 07:30:47;;;;;;;5.53;2.97;;;19.70;34.10;;;;;;4983841;28;20281;-80
2021/05/17 07:33:13;;;;;;;5.03;2.90;;;19.80;33.90;;;;;;4999015;28;20498;-79
2021/05/17 07:35:40;;;;;;;6.20;3.60;;;19.90;34.20;;;;;;5016701;28;20471;-78
2021/05/17 07:38:06;;;;;;;3.47;2.93;;;20.00;33.90;;;;;;4998037;28;20562;-77
2021/05/17 07:40:32;;;;;;;4.33;3.07;;;20.10;33.60;;;;;;4997510;28;20523;-78
2021/05/17 07:42:58;;;;;;;4.70;3.00;;;20.20;33.20;;;;;;5015040;28;20279;-78
2021/05/17 07:45:39;;;;;;;6.13;4.07;;;20.30;33.10;;;;;;4997975;28;20435;-79
2021/05/17 07:48:11;;;;;;;3.97;3.50;;;20.40;33.70;;;;;;5005991;28;20419;-79
2021/05/17 07:50:37;;;;;;;4.63;3.20;;;20.50;32.90;;;;;;5015247;28;20541;-79
2021/05/17 07:53:03;;;;;;;4.97;2.90;;;20.50;32.90;;;;;;4996841;28;20468;-77
2021/05/17 07:55:32;;;;;;;5.27;3.47;;;20.60;32.50;;;;;;4997274;28;20544;-78
2021/05/17 07:58:01;;;;;;;6.07;3.30;;;20.70;32.40;;;;;;4996187;28;20452;-79
2021/05/17 08:00:51;;;;;;;5.67;2.93;;;20.70;32.20;;;;;;4997670;28;20507;-78
2021/05/17 08:03:19;;;;;;;3.53;3.23;;;20.80;32.10;;;;;;5013010;28;20432;-80
2021/05/17 08:05:48;;;;;;;3.40;3.10;;;20.80;31.90;;;;;;5001442;28;20492;-79
2021/05/17 08:08:21;;;;;;;3.33;2.80;;;20.80;32.00;;;;;;4992677;28;20434;-78
2021/05/17 08:10:53;;;;;;;4.93;3.13;;;20.80;31.80;;;;;;5000064;28;20455;-79
2021/05/17 08:13:23;;;;;;;3.20;2.80;;;20.90;31.80;;;;;;5001227;28;20460;-79
2021/05/17 08:15:50;;;;;;;4.97;2.77;;;20.90;31.70;;;;;;4999552;28;20412;-79
2021/05/17 08:18:16;;;;;;;4.30;3.00;;;21.00;31.70;;;;;;4981901;28;20451;-79
2021/05/17 08:20:42;;;;;;;5.20;2.70;;;21.00;31.50;;;;;;4999821;28;20436;-79
2021/05/17 08:23:11;;;;;;;3.27;3.00;;;21.00;31.40;;;;;;5000610;28;20252;-79
2021/05/17 08:25:36;;;;;;;3.63;3.33;;;21.00;31.50;;;;;;5000069;28;20264;-79
2021/05/17 08:28:02;;;;;;;2.57;2.37;;;21.00;31.40;;;;;;5016837;28;20456;-79
2021/05/17 08:30:29;;;;;;;3.00;2.80;;;21.00;31.50;;;;;;5017539;28;20208;-78
2021/05/17 08:32:55;;;;;;;4.93;2.63;;;21.00;31.50;;;;;;4999035;28;20188;-78
2021/05/17 08:35:29;;;;;;;4.17;2.80;;;21.10;31.70;;;;;;5015871;28;20416;-79
2021/05/17 08:38:05;;;;;;;5.20;3.50;;;21.10;31.40;;;;;;5017499;28;20413;-79
2021/05/17 08:40:47;;;;;;;3.80;2.77;;;21.20;31.30;;;;;;5002587;28;20440;-79
2021/05/17 08:43:15;;;;;;;3.73;2.60;;;21.20;31.00;;;;;;5011887;28;20438;-79
2021/05/17 08:45:43;;;;;;;4.97;3.27;;;21.20;30.90;;;;;;4999732;28;20428;-79
2021/05/17 08:48:09;;;;;;;4.73;3.20;;;21.20;30.90;;;;;;4999694;28;20435;-80
2021/05/17 08:50:36;;;;;;;3.73;2.90;;;21.30;31.00;;;;;;5017530;28;20428;-80
2021/05/17 08:53:08;;;;;;;5.30;2.80;;;21.30;31.00;;;;;;5015070;28;20549;-79
2021/05/17 08:55:35;;;;;;;3.20;2.50;;;21.30;31.00;;;;;;4999361;28;20413;-80
2021/05/17 08:58:01;;;;;;;5.50;2.80;;;21.30;31.00;;;;;;4983398;28;21017;-78
2021/05/17 09:00:27;;;;;;;2.50;2.30;;;21.30;31.00;;;;;;5016498;28;20471;-78
2021/05/17 09:02:53;;;;;;;4.53;2.90;;;21.40;31.10;;;;;;4998232;28;20193;-78
2021/05/17 09:05:35;;;;;;;3.40;2.40;;;21.40;31.20;;;;;;4999195;28;20431;-79
2021/05/17 09:08:05;;;;;;;3.07;2.70;;;21.40;31.10;;;;;;4998671;28;20423;-78
2021/05/17 09:10:36;;;;;;;3.17;2.50;;;21.40;31.10;;;;;;4999286;28;20444;-78
2021/05/17 09:13:25;;;;;;;4.73;2.90;;;21.40;31.00;;;;;;5016388;28;20412;-78
2021/05/17 09:15:56;;;;;;;3.13;2.70;;;21.40;30.90;;;;;;4992796;28;20448;-78
2021/05/17 09:18:27;;;;;;;4.23;3.10;;;21.40;30.80;;;;;;4999121;28;20439;-78
2021/05/17 09:21:13;;;;;;;3.27;2.70;;;21.40;31.00;;;;;;4997646;28;20444;-79
2021/05/17 09:23:39;;;;;;;2.80;2.60;;;21.40;30.90;;;;;;4999275;28;20419;-78
2021/05/17 09:26:14;;;;;;;4.30;3.43;;;21.40;31.00;;;;;;4998779;28;20704;-78
2021/05/17 09:28:53;;;;;;;2.97;2.77;;;21.40;31.10;;;;;;5010535;28;20447;-78
2021/05/17 09:31:24;;;;;;;5.93;3.00;;;21.40;31.10;;;;;;5016170;28;20950;-78
2021/05/17 09:33:53;;;;;;;2.70;2.50;;;21.50;31.20;;;;;;5017896;28;20515;-79
2021/05/17 09:36:23;;;;;;;3.17;2.87;;;21.50;31.20;;;;;;4999425;28;20459;-79
2021/05/17 09:38:56;;;;;;;3.10;2.77;;;21.50;31.20;;;;;;5016788;28;20910;-79
2021/05/17 09:41:22;;;;;;;3.90;2.77;;;21.50;31.20;;;;;;5016497;28;20436;-79
2021/05/17 09:43:48;;;;;;;5.00;3.03;;;21.50;31.20;;;;;;4999040;28;20420;-79
2021/05/17 09:46:14;;;;;;;3.97;3.05;;;21.50;31.20;;;;;;4998596;28;20434;-77
2021/05/17 09:48:46;;;;;;;2.83;2.60;;;21.50;31.00;;;;;;5016976;28;20169;-77
2021/05/17 09:51:18;;;;;;;2.90;2.70;;;21.60;30.90;;;;;;5016794;28;20205;-79
2021/05/17 09:53:46;;;;;;;2.90;2.70;;;21.60;31.00;;;;;;5016635;28;20463;-78
2021/05/17 09:56:18;;;;;;;3.50;3.10;;;21.60;30.90;;;;;;5016785;28;20404;-81
2021/05/17 09:58:46;;;;;;;2.83;2.67;;;21.60;30.80;;;;;;4999606;28;20432;-78
2021/05/17 10:01:11;;;;;;;5.10;3.30;;;21.60;30.70;;;;;;5016318;28;20813;-79
2021/05/17 10:03:44;;;;;;;3.17;2.70;;;21.60;30.60;;;;;;4999160;28;20188;-79
2021/05/17 10:06:17;;;;;;;3.03;2.73;;;21.60;30.50;;;;;;5016245;28;20613;-80
2021/05/17 10:08:44;;;;;;;4.40;2.90;;;21.60;30.50;;;;;;4999760;28;20440;-80
2021/05/17 10:11:09;;;;;;;2.80;2.60;;;21.60;30.50;;;;;;5016465;28;20428;-81
2021/05/17 10:13:38;;;;;;;3.53;3.23;;;21.60;30.50;;;;;;4998344;28;20546;-78
2021/05/17 10:16:10;;;;;;;3.30;3.10;;;21.60;30.50;;;;;;4998032;28;20196;-79
2021/05/17 10:18:37;;;;;;;3.33;3.13;;;21.60;30.30;;;;;;4998228;28;20421;-78
2021/05/17 10:21:07;;;;;;;2.80;2.60;;;21.60;30.40;;;;;;4997805;28;20439;-77
2021/05/17 10:23:33;;;;;;;3.00;2.70;;;21.70;30.40;;;;;;5016006;28;20486;-79
2021/05/17 10:26:10;;;;;;;3.13;2.90;;;21.70;30.40;;;;;;5015636;28;20431;-80
2021/05/17 10:28:38;;;;;;;2.43;2.23;;;21.70;30.50;;;;;;5015762;28;20882;-78
2021/05/17 10:31:17;;;;;;;2.80;2.60;;;21.70;30.50;;;;;;4998337;28;20468;-79
2021/05/17 10:34:03;;;;;;;2.63;2.53;;;21.70;30.60;;;;;;5016080;28;20448;-78
2021/05/17 10:36:58;;;;;;;3.03;2.83;;;21.70;30.60;;;;;;5015922;28;20471;-79
2021/05/17 10:39:43;;;;;;;2.80;2.53;;;21.70;30.50;;;;;;4997853;28;20431;-78
2021/05/17 10:42:35;;;;;;;3.10;2.90;;;21.70;30.50;;;;;;5015836;28;20404;-79
2021/05/17 10:48:16;;;;;;;3.40;3.20;;;21.70;30.50;;;;;;5019531;28;20197;-79
2021/05/17 10:50:43;;;;;;;3.53;2.60;;;21.70;30.40;;;;;;5018668;28;20988;-78
2021/05/17 10:53:55;;;;;;;2.30;2.20;;;21.70;30.40;;;;;;5001301;28;20503;-79
2021/05/17 10:56:43;;;;;;;3.57;3.30;;;21.70;30.30;;;;;;5018805;28;20898;-80
2021/05/17 11:01:56;;;;;;;2.40;2.23;;;21.70;30.30;;;;;;5017314;28;20502;-78
2021/05/17 11:04:35;;;;;;;2.70;2.50;;;21.80;30.30;;;;;;5016574;28;20404;-78
2021/05/17 11:07:14;;;;;;;3.00;2.80;;;21.80;30.30;;;;;;4999452;28;20511;-79
2021/05/17 11:09:42;;;;;;;4.20;2.88;;;21.80;30.30;;;;;;5017952;28;20472;-79
2021/05/17 11:12:26;;;;;;;2.93;2.83;;;21.80;30.30;;;;;;5001915;28;20197;-78
2021/05/17 11:15:12;;;;;;;4.27;3.00;;;21.80;30.30;;;;;;4999454;28;20459;-78
2021/05/17 11:17:54;;;;;;;2.90;2.70;;;21.80;30.40;;;;;;4999220;28;20507;-77
2021/05/17 11:20:40;;;;;;;2.87;2.67;;;21.80;30.40;;;;;;5015584;28;20485;-77
2021/05/17 11:23:08;;;;;;;2.33;2.22;;;21.80;30.50;;;;;;5015335;28;20913;-76
2021/05/17 11:28:42;;;;;;;2.40;2.30;;;21.70;30.40;;;;;;5016230;28;20416;-79
2021/05/17 11:31:18;;;;;;;2.47;2.37;;;21.80;30.50;;;;;;5015070;28;20776;-79
2021/05/17 11:34:07;;;;;;;3.20;3.00;;;21.70;30.50;;;;;;5015831;28;20451;-78
2021/05/17 11:36:47;;;;;;;2.70;2.60;;;21.70;30.50;;;;;;4999750;28;20423;-78
2021/05/17 11:39:18;;;;;;;2.90;2.70;;;21.70;30.50;;;;;;5019628;28;20918;-78
2021/05/17 11:42:00;;;;;;;2.97;2.87;;;21.70;30.70;;;;;;5018461;28;20412;-78
2021/05/17 11:44:34;;;;;;;2.87;2.70;;;21.70;30.70;;;;;;4999861;28;20428;-77
2021/05/17 11:47:11;;;;;;;2.70;2.60;;;21.70;30.60;;;;;;4998645;28;20416;-79
2021/05/17 11:49:42;;;;;;;2.97;2.78;;;21.70;30.60;;;;;;4997792;28;20826;-78
2021/05/17 11:52:13;;;;;;;2.83;2.73;;;21.70;30.50;;;;;;4999566;28;20178;-78
2021/05/17 11:54:46;;;;;;;2.63;2.50;;;21.80;30.60;;;;;;4980841;28;20464;-79
2021/05/17 11:57:12;;;;;;;2.83;2.63;;;21.80;30.60;;;;;;4998462;28;20444;-79
2021/05/17 11:59:38;;;;;;;2.90;2.70;;;21.80;30.60;;;;;;5013013;28;20412;-79
2021/05/17 12:02:06;;;;;;;2.70;2.50;;;21.80;30.60;;;;;;4998831;28;20167;-79
2021/05/17 12:04:37;;;;;;;3.20;2.50;;;21.80;30.60;;;;;;4998920;28;20420;-77
2021/05/17 12:07:11;;;;;;;3.13;2.77;;;21.80;30.60;;;;;;4997679;28;20413;-78
2021/05/17 12:09:42;;;;;;;2.87;2.67;;;21.80;30.70;;;;;;4997419;28;20851;-79
2021/05/17 12:12:13;;;;;;;3.17;2.97;;;21.80;30.80;;;;;;4997465;28;20416;-78
2021/05/17 12:14:41;;;;;;;2.83;2.70;;;21.80;30.80;;;;;;4980354;28;20460;-78
2021/05/17 12:17:08;;;;;;;2.90;2.70;;;21.80;30.90;;;;;;4988208;28;20442;-78
2021/05/17 12:19:34;;;;;;;2.70;2.60;;;21.80;30.80;;;;;;4999670;28;20500;-78
2021/05/17 12:22:06;;;;;;;2.57;2.47;;;21.80;30.80;;;;;;5000133;28;20444;-79
2021/05/17 12:24:32;;;;;;;2.60;2.50;;;21.80;30.80;;;;;;5002716;28;20424;-78
2021/05/17 12:27:04;;;;;;;2.30;2.10;;;21.80;30.70;;;;;;4999879;28;20439;-78
2021/05/17 12:29:50;;;;;;;3.00;2.87;;;21.80;30.60;;;;;;5017815;28;20408;-79
2021/05/17 12:32:16;;;;;;;3.13;2.73;;;21.80;30.70;;;;;;5017232;28;20447;-79
2021/05/17 12:34:57;;;;;;;3.10;2.90;;;21.80;30.60;;;;;;4999993;28;20895;-79
2021/05/17 12:37:25;;;;;;;2.40;2.30;;;21.80;30.60;;;;;;5016805;28;20495;-79
2021/05/17 12:40:10;;;;;;;4.03;2.60;;;21.80;30.50;;;;;;4999675;28;20433;-79
2021/05/17 12:42:36;;;;;;;2.83;2.63;;;21.80;30.50;;;;;;4999716;28;20408;-79
2021/05/17 12:45:08;;;;;;;2.80;2.60;;;21.80;30.50;;;;;;4999352;28;20937;-78
2021/05/17 12:47:38;;;;;;;2.93;2.70;;;21.80;30.50;;;;;;5018034;28;20192;-78
2021/05/17 12:50:04;;;;;;;2.60;2.50;;;21.80;30.50;;;;;;4999880;28;20528;-78
2021/05/17 12:52:37;;;;;;;2.87;2.67;;;21.80;30.50;;;;;;4999364;28;21122;-79
2021/05/17 12:55:23;;;;;;;2.50;2.40;;;21.80;30.50;;;;;;5016739;28;20456;-79
2021/05/17 12:57:50;;;;;;;2.47;2.37;;;21.80;30.50;;;;;;5000011;28;20440;-79
2021/05/17 13:00:33;;;;;;;2.80;2.70;;;21.80;30.40;;;;;;5017114;28;20515;-78
2021/05/17 13:03:09;;;;;;;2.60;2.50;;;21.80;30.50;;;;;;5017448;28;20457;-79
2021/05/17 13:05:54;;;;;;;2.60;2.40;;;21.80;30.40;;;;;;5016460;28;20416;-79
2021/05/17 13:08:22;;;;;;;2.70;2.50;;;21.80;30.40;;;;;;5016301;28;20934;-77
2021/05/17 13:11:05;;;;;;;3.20;2.90;;;21.80;30.40;;;;;;4999052;28;20468;-80
2021/05/17 13:14:08;;;;;;;2.43;2.33;;;21.80;30.40;;;;;;5017533;28;20462;-79
2021/05/17 13:16:38;;;;;;;3.00;2.80;;;21.80;30.40;;;;;;5016835;28;20921;-79
2021/05/17 13:25:18;;;;;;;2.97;2.77;;;21.70;30.20;;;;;;5001052;28;20474;-79
2021/05/17 13:33:54;;;;;;;2.90;2.70;;;21.70;30.30;;;;;;5017390;28;20467;-78
2021/05/17 13:36:21;;;;;;;3.00;2.80;;;21.80;30.30;;;;;;5009927;28;20424;-79
2021/05/17 13:38:52;;;;;;;3.33;3.13;;;21.80;30.10;;;;;;4996786;28;20256;-79
2021/05/17 13:41:19;;;;;;;3.17;2.57;;;21.80;30.10;;;;;;4996358;28;20429;-80
2021/05/17 13:43:49;;;;;;;2.90;2.70;;;21.80;30.00;;;;;;4996728;28;20432;-77
2021/05/17 13:46:15;;;;;;;3.10;2.87;;;21.90;30.10;;;;;;4979321;28;20476;-78
2021/05/17 13:48:51;;;;;;;3.17;2.90;;;21.90;30.10;;;;;;4997356;28;20927;-79
2021/05/17 13:51:26;;;;;;;3.13;3.00;;;21.90;30.20;;;;;;4996712;28;20915;-79
2021/05/17 13:53:54;;;;;;;3.07;2.87;;;21.90;30.10;;;;;;4997054;28;20460;-79
2021/05/17 13:56:20;;;;;;;3.40;2.83;;;21.90;30.00;;;;;;4996818;28;20487;-78
2021/05/17 13:58:46;;;;;;;2.57;2.37;;;21.90;30.10;;;;;;4995041;28;20476;-78
2021/05/17 14:01:11;;;;;;;2.40;2.27;;;21.90;30.00;;;;;;4998071;28;20657;-79
2021/05/17 14:03:37;;;;;;;4.03;3.63;;;21.90;30.00;;;;;;4998013;28;20181;-79
2021/05/17 14:06:06;;;;;;;3.23;2.87;;;21.90;30.00;;;;;;4997445;28;20200;-79
2021/05/17 14:08:31;;;;;;;3.30;3.00;;;21.90;30.10;;;;;;5015610;28;20192;-79
2021/05/17 14:10:57;;;;;;;3.30;3.00;;;21.90;30.20;;;;;;5014856;28;20428;-79
2021/05/17 14:13:23;;;;;;;3.83;3.27;;;21.90;30.10;;;;;;4997255;28;20294;-79
2021/05/17 14:15:58;;;;;;;4.40;3.77;;;21.80;30.00;;;;;;5014935;28;20894;-77
2021/05/17 14:18:26;;;;;;;3.20;2.80;;;21.80;30.00;;;;;;5000336;28;20524;-79
2021/05/17 14:20:51;;;;;;;2.93;2.50;;;21.90;30.10;;;;;;5001458;28;20462;-79
2021/05/17 14:23:17;;;;;;;4.57;2.70;;;21.80;30.00;;;;;;5001102;28;20420;-79
2021/05/17 14:25:43;;;;;;;3.20;2.50;;;21.80;30.00;;;;;;5000984;28;20559;-79
2021/05/17 14:28:09;;;;;;;2.83;2.53;;;21.80;30.00;;;;;;5001107;28;20268;-79
2021/05/17 14:30:35;;;;;;;3.10;2.80;;;21.80;30.10;;;;;;5000485;28;20265;-78
2021/05/17 14:33:01;;;;;;;2.43;2.23;;;21.80;30.10;;;;;;4999801;28;20420;-80
2021/05/17 14:35:27;;;;;;;3.10;2.80;;;21.80;30.90;;;;;;5017334;28;20458;-79
2021/05/17 14:37:52;;;;;;;3.53;2.37;;;21.80;30.00;;;;;;4999745;28;20633;-79
2021/05/17 14:40:18;;;;;;;3.10;2.90;;;21.80;30.00;;;;;;4999350;28;20447;-77
2021/05/17 14:42:44;;;;;;;2.77;2.60;;;21.80;30.10;;;;;;5017174;28;20169;-77
2021/05/17 14:45:13;;;;;;;2.20;2.07;;;21.80;30.10;;;;;;4999283;28;20526;-77
2021/05/17 14:47:38;;;;;;;3.63;2.67;;;21.80;30.20;;;;;;5016809;28;20181;-78
2021/05/17 14:50:06;;;;;;;3.40;2.93;;;21.70;30.20;;;;;;5016878;28;20829;-77
2021/05/17 14:52:31;;;;;;;2.97;2.77;;;21.80;30.20;;;;;;5017102;28;20268;-77
2021/05/17 14:54:57;;;;;;;7.60;3.30;;;21.80;30.50;;;;;;4999150;28;20555;-78
2021/05/17 14:57:24;;;;;;;4.70;3.33;;;21.60;30.60;;;;;;4999189;28;20209;-79
2021/05/17 14:59:52;;;;;;;3.97;3.27;;;21.60;30.70;;;;;;5015571;28;20189;-77
2021/05/17 15:02:18;;;;;;;2.50;2.30;;;21.50;30.90;;;;;;5015854;28;20416;-77